Terminal Aerodrome Forecast
Issued by NWS Binghamton, NY

Home | Current Version | Previous Version | Text Only | Print | Product List | Glossary On
Versions: 1 2 3 4 5 6 7 8 9 10 11 12 13 14 15 16 17 18 19 20 21
768
FTUS41 KBGM 281136
TAFAVP
TAF
KAVP 281136Z 2812/0112 17005KT P6SM BKN150
     FM281900 13005KT P6SM OVC080
     FM010100 15008KT P6SM OVC040
     FM010300 18010KT 4SM -SHRA BR SCT015 OVC025=

USA.gov is the U.S. government's official web portal to all federal, state and local government web resources and services.